Time;durP1;ratioP1;P1;durP2;ratioP2;P2;SDS_P1;SDS_P2;PMS_P1;PMS_P2;Temp;Humidity;BMP_temperature;BMP_pressure;BME280_temperature;BME280_humidity;BME280_pressure;Samples;Min_cycle;Max_cycle;Signal;HPM_P1;HPM_P2
2022/01/01 00:01:15;;;;;;;;;;;14.80;58.50;;;;;;5094052;28;20404;-60
2022/01/01 00:03:40;;;;;;;;;;;14.80;58.60;;;;;;5093983;28;19941;-60
2022/01/01 00:06:05;;;;;;;;;;;14.80;58.60;;;;;;5094218;28;19907;-60
2022/01/01 00:08:31;;;;;;;;;;;14.80;58.40;;;;;;5094092;28;20372;-60
2022/01/01 00:10:56;;;;;;;;;;;14.80;58.50;;;;;;5094095;28;20248;-60
2022/01/01 00:13:22;;;;;;;;;;;14.80;58.50;;;;;;5093803;28;19908;-60
2022/01/01 00:15:47;;;;;;;;;;;14.80;58.60;;;;;;5093829;28;19918;-60
2022/01/01 00:18:13;;;;;;;;;;;14.80;58.60;;;;;;5093832;28;19931;-60
2022/01/01 00:20:38;;;;;;;;;;;14.80;58.50;;;;;;5093697;28;20302;-60
2022/01/01 00:23:03;;;;;;;;;;;14.80;58.50;;;;;;5093848;28;19919;-60
2022/01/01 00:25:29;;;;;;;;;;;14.80;58.60;;;;;;5093707;28;20407;-61
2022/01/01 00:27:54;;;;;;;;;;;14.80;58.50;;;;;;5093586;28;20378;-60
2022/01/01 00:30:20;;;;;;;;;;;14.80;58.60;;;;;;5093596;28;20010;-60
2022/01/01 00:32:45;;;;;;;;;;;14.80;58.60;;;;;;5093664;28;19915;-60
2022/01/01 00:35:11;;;;;;;;;;;14.80;58.50;;;;;;5093564;28;19909;-60
2022/01/01 00:37:36;;;;;;;;;;;14.70;58.60;;;;;;5093627;28;19947;-60
2022/01/01 00:40:02;;;;;;;;;;;14.80;58.60;;;;;;5093522;28;19908;-60
2022/01/01 00:42:27;;;;;;;;;;;14.80;58.60;;;;;;5093361;28;20343;-60
2022/01/01 00:44:53;;;;;;;;;;;14.80;58.60;;;;;;5092386;28;19912;-62
2022/01/01 00:47:19;;;;;;;;;;;14.80;58.60;;;;;;5093503;28;19948;-61
2022/01/01 00:49:44;;;;;;;;;;;14.80;58.60;;;;;;5093667;28;19999;-62
2022/01/01 00:52:10;;;;;;;;;;;14.80;58.60;;;;;;5093722;28;19912;-60
2022/01/01 00:54:35;;;;;;;;;;;14.80;58.60;;;;;;5094136;28;19912;-62
2022/01/01 00:57:01;;;;;;;;;;;14.80;58.50;;;;;;5093407;28;20030;-63
2022/01/01 00:59:28;;;;;;;;;;;14.80;58.50;;;;;;5093512;28;19908;-62
2022/01/01 01:01:53;;;;;;;;;;;14.80;58.60;;;;;;5093668;28;19908;-62
2022/01/01 01:04:19;;;;;;;;;;;14.80;58.70;;;;;;5093503;28;19953;-63
2022/01/01 01:06:44;;;;;;;;;;;14.80;58.70;;;;;;5093427;28;19916;-61
2022/01/01 01:09:10;;;;;;;;;;;14.80;58.50;;;;;;5093587;28;19912;-61
2022/01/01 01:11:44;;;;;;;;;;;14.70;58.70;;;;;;5093734;28;19908;-61
2022/01/01 01:14:18;;;;;;;;;;;14.80;58.70;;;;;;5093202;28;19908;-62
2022/01/01 01:16:43;;;;;;;;;;;14.80;58.60;;;;;;5075103;28;19931;-61
2022/01/01 01:19:09;;;;;;;;;;;14.80;58.60;;;;;;5093499;28;20271;-61
2022/01/01 01:21:34;;;;;;;;;;;14.70;58.60;;;;;;5093362;28;20279;-63
2022/01/01 01:24:01;;;;;;;;;;;14.70;58.70;;;;;;5075119;28;19916;-61
2022/01/01 01:26:28;;;;;;;;;;;14.80;58.60;;;;;;5093286;28;19978;-60
2022/01/01 01:28:55;;;;;;;;;;;14.80;58.60;;;;;;5093457;28;19951;-62
2022/01/01 01:31:23;;;;;;;;;;;14.70;58.60;;;;;;5075360;28;19908;-62
2022/01/01 01:33:49;;;;;;;;;;;14.70;58.80;;;;;;5093212;28;20330;-62
2022/01/01 01:36:14;;;;;;;;;;;14.80;58.60;;;;;;5092945;28;19958;-61
2022/01/01 01:38:40;;;;;;;;;;;14.80;58.70;;;;;;5092883;28;19996;-61
2022/01/01 01:41:06;;;;;;;;;;;14.80;58.70;;;;;;5093037;28;19923;-62
2022/01/01 01:43:32;;;;;;;;;;;14.70;58.70;;;;;;5092979;28;19908;-62
2022/01/01 01:46:03;;;;;;;;;;;14.70;58.70;;;;;;5093103;28;19908;-62
2022/01/01 01:48:28;;;;;;;;;;;14.70;58.70;;;;;;5093133;28;20006;-61
2022/01/01 01:50:55;;;;;;;;;;;14.70;58.50;;;;;;5093291;28;19940;-60
2022/01/01 01:53:21;;;;;;;;;;;14.70;58.60;;;;;;5093155;28;19908;-61
2022/01/01 01:55:47;;;;;;;;;;;14.70;58.70;;;;;;5077340;28;20371;-62
2022/01/01 01:58:12;;;;;;;;;;;14.70;58.70;;;;;;5096905;28;20007;-60
2022/01/01 02:03:26;;;;;;;;;;;14.70;58.80;;;;;;5067673;28;19915;-62
2022/01/01 02:05:52;;;;;;;;;;;14.70;58.80;;;;;;5096869;28;20355;-61
2022/01/01 02:08:19;;;;;;;;;;;14.70;58.80;;;;;;5096838;28;19959;-62
2022/01/01 02:10:46;;;;;;;;;;;14.70;58.70;;;;;;5096472;28;19915;-60
2022/01/01 02:13:18;;;;;;;;;;;14.70;58.70;;;;;;5095902;28;20282;-60
2022/01/01 02:16:10;;;;;;;;;;;14.70;58.70;;;;;;5096371;28;20279;-60
2022/01/01 02:18:29;;;;;;;;;;;14.70;58.70;;;;;;5095273;28;19908;-60
2022/01/01 02:20:57;;;;;;;;;;;14.70;58.80;;;;;;5096124;28;19915;-60
2022/01/01 02:23:25;;;;;;;;;;;14.70;58.80;;;;;;5096136;28;19962;-60
2022/01/01 02:25:51;;;;;;;;;;;14.70;58.70;;;;;;5095958;28;19912;-60
2022/01/01 02:28:16;;;;;;;;;;;14.70;58.80;;;;;;5095850;28;19916;-60
2022/01/01 02:30:42;;;;;;;;;;;14.70;58.70;;;;;;5095866;28;19915;-60
2022/01/01 02:33:08;;;;;;;;;;;14.70;58.60;;;;;;5095889;28;19908;-60
2022/01/01 02:35:33;;;;;;;;;;;14.70;58.70;;;;;;5095627;28;20262;-60
2022/01/01 02:37:59;;;;;;;;;;;14.70;58.80;;;;;;5095714;28;19908;-60
2022/01/01 02:40:25;;;;;;;;;;;14.70;58.70;;;;;;5095633;28;20372;-60
2022/01/01 02:42:51;;;;;;;;;;;14.70;58.80;;;;;;5095586;28;19943;-60
2022/01/01 02:45:17;;;;;;;;;;;14.70;58.70;;;;;;5095576;28;20276;-60
2022/01/01 02:47:43;;;;;;;;;;;14.70;58.60;;;;;;5095360;28;19917;-60
2022/01/01 02:50:09;;;;;;;;;;;14.70;58.90;;;;;;5095770;28;19908;-60
2022/01/01 02:52:35;;;;;;;;;;;14.70;58.90;;;;;;5095482;28;19908;-60
2022/01/01 02:55:09;;;;;;;;;;;14.70;58.80;;;;;;5095445;28;19934;-60
2022/01/01 02:57:35;;;;;;;;;;;14.70;58.70;;;;;;5093819;28;19924;-60
2022/01/01 03:00:00;;;;;;;;;;;14.70;58.70;;;;;;5095311;28;19908;-60
2022/01/01 03:02:26;;;;;;;;;;;14.70;58.70;;;;;;5095192;28;19923;-60
2022/01/01 03:04:52;;;;;;;;;;;14.70;58.80;;;;;;5095467;28;19908;-60
2022/01/01 03:07:18;;;;;;;;;;;14.70;58.70;;;;;;5094423;28;19916;-60
2022/01/01 03:09:44;;;;;;;;;;;14.70;58.90;;;;;;5095333;28;19908;-60
2022/01/01 03:12:10;;;;;;;;;;;14.70;58.90;;;;;;5095073;28;19908;-60
2022/01/01 03:14:37;;;;;;;;;;;14.70;58.80;;;;;;5094952;28;19995;-60
2022/01/01 03:17:03;;;;;;;;;;;14.70;58.90;;;;;;5094902;28;20408;-60
2022/01/01 03:19:28;;;;;;;;;;;14.70;58.70;;;;;;5095034;28;20394;-60
2022/01/01 03:21:54;;;;;;;;;;;14.70;58.80;;;;;;5094737;28;19939;-60
2022/01/01 03:24:19;;;;;;;;;;;14.70;58.90;;;;;;5094813;28;20099;-60
2022/01/01 03:26:45;;;;;;;;;;;14.70;58.80;;;;;;5094762;28;20279;-61
2022/01/01 03:29:10;;;;;;;;;;;14.70;58.80;;;;;;5094651;28;19966;-62
2022/01/01 03:31:36;;;;;;;;;;;14.70;58.90;;;;;;5094738;28;19908;-59
2022/01/01 03:34:02;;;;;;;;;;;14.70;58.90;;;;;;5094963;28;19930;-61
2022/01/01 03:36:27;;;;;;;;;;;14.70;58.90;;;;;;5094616;28;20006;-61
2022/01/01 03:38:53;;;;;;;;;;;14.70;58.80;;;;;;5094689;28;20363;-61
2022/01/01 03:41:18;;;;;;;;;;;14.70;59.00;;;;;;5094883;28;20342;-61
2022/01/01 03:43:44;;;;;;;;;;;14.70;58.90;;;;;;5094506;28;20311;-61
2022/01/01 03:46:10;;;;;;;;;;;14.70;58.90;;;;;;5094274;28;19920;-61
2022/01/01 03:48:35;;;;;;;;;;;14.70;58.90;;;;;;5094584;28;20011;-61
2022/01/01 03:51:01;;;;;;;;;;;14.70;59.00;;;;;;5094493;28;20010;-61
2022/01/01 03:53:26;;;;;;;;;;;14.70;58.80;;;;;;5094328;28;19909;-62
2022/01/01 03:55:52;;;;;;;;;;;14.70;58.90;;;;;;5094345;28;20356;-61
2022/01/01 03:58:18;;;;;;;;;;;14.70;58.80;;;;;;5094022;28;19927;-61
2022/01/01 04:00:43;;;;;;;;;;;14.70;59.00;;;;;;5094226;28;19912;-61
2022/01/01 04:03:10;;;;;;;;;;;14.70;58.90;;;;;;5094115;28;20353;-59
2022/01/01 04:05:36;;;;;;;;;;;14.70;58.90;;;;;;5094093;28;20367;-59
2022/01/01 04:08:03;;;;;;;;;;;14.70;58.90;;;;;;5094094;28;20313;-59
2022/01/01 04:10:31;;;;;;;;;;;14.70;58.90;;;;;;5094312;28;19909;-62
2022/01/01 04:12:57;;;;;;;;;;;14.70;59.00;;;;;;5093956;28;20351;-60
2022/01/01 04:15:22;;;;;;;;;;;14.70;58.90;;;;;;5094175;28;19908;-60
2022/01/01 04:17:48;;;;;;;;;;;14.70;59.00;;;;;;5093666;28;19961;-60
2022/01/01 04:20:14;;;;;;;;;;;14.70;58.80;;;;;;5093979;28;19908;-59
2022/01/01 04:22:39;;;;;;;;;;;14.70;58.80;;;;;;5093924;28;20284;-60
2022/01/01 04:25:05;;;;;;;;;;;14.70;58.80;;;;;;5093796;28;19912;-60
2022/01/01 04:27:30;;;;;;;;;;;14.70;59.00;;;;;;5093622;28;19927;-60
2022/01/01 04:29:56;;;;;;;;;;;14.70;58.90;;;;;;5094147;28;19942;-60
2022/01/01 04:32:21;;;;;;;;;;;14.60;58.90;;;;;;5093926;28;19908;-60
2022/01/01 04:34:47;;;;;;;;;;;14.70;58.90;;;;;;5093677;28;19998;-60
2022/01/01 04:37:15;;;;;;;;;;;14.70;58.90;;;;;;5093561;28;19908;-60
2022/01/01 04:39:40;;;;;;;;;;;14.70;58.90;;;;;;5093667;28;20527;-60
2022/01/01 04:42:06;;;;;;;;;;;14.60;59.00;;;;;;5093593;28;19996;-60
2022/01/01 04:44:32;;;;;;;;;;;14.70;59.00;;;;;;5093434;28;19914;-60
2022/01/01 04:46:57;;;;;;;;;;;14.70;59.00;;;;;;5093586;28;19967;-60
2022/01/01 04:49:23;;;;;;;;;;;14.60;58.90;;;;;;5093478;28;20317;-60
2022/01/01 04:51:49;;;;;;;;;;;14.70;59.00;;;;;;5093723;28;20363;-60
2022/01/01 04:54:17;;;;;;;;;;;14.60;59.00;;;;;;5093833;28;19908;-60
2022/01/01 04:56:47;;;;;;;;;;;14.60;58.90;;;;;;5093269;28;20346;-60
2022/01/01 04:59:13;;;;;;;;;;;14.60;58.90;;;;;;5093745;28;19918;-60
2022/01/01 05:01:39;;;;;;;;;;;14.70;59.00;;;;;;5093614;28;19908;-60
2022/01/01 05:04:05;;;;;;;;;;;14.60;58.90;;;;;;5093518;28;19908;-59
2022/01/01 05:06:31;;;;;;;;;;;14.60;59.00;;;;;;5093480;28;19920;-60
2022/01/01 05:08:56;;;;;;;;;;;14.70;59.00;;;;;;5093421;28;19912;-60
2022/01/01 05:11:21;;;;;;;;;;;14.70;58.90;;;;;;5093509;28;20042;-60
2022/01/01 05:13:47;;;;;;;;;;;14.70;59.10;;;;;;5093295;28;19908;-60
2022/01/01 05:16:17;;;;;;;;;;;14.60;59.00;;;;;;5093539;28;19908;-60
2022/01/01 05:18:42;;;;;;;;;;;14.60;59.00;;;;;;5093518;28;19911;-60
2022/01/01 05:21:07;;;;;;;;;;;14.70;59.10;;;;;;5093309;28;19931;-59
2022/01/01 05:23:33;;;;;;;;;;;14.70;58.80;;;;;;5093577;28;19908;-60
2022/01/01 05:25:58;;;;;;;;;;;14.60;59.00;;;;;;5093115;28;19953;-60
2022/01/01 05:28:24;;;;;;;;;;;14.60;59.10;;;;;;5093020;28;20282;-60
2022/01/01 05:30:50;;;;;;;;;;;14.60;59.10;;;;;;5095907;28;19912;-60
2022/01/01 05:33:16;;;;;;;;;;;14.60;59.10;;;;;;5097089;28;19931;-60
2022/01/01 05:35:41;;;;;;;;;;;14.70;59.10;;;;;;5096942;28;20372;-59
2022/01/01 05:38:07;;;;;;;;;;;14.60;59.00;;;;;;5097026;28;20003;-60
2022/01/01 05:40:32;;;;;;;;;;;14.60;58.90;;;;;;5096881;28;19978;-60
2022/01/01 05:42:57;;;;;;;;;;;14.60;59.00;;;;;;5096775;28;20360;-60
2022/01/01 05:45:23;;;;;;;;;;;14.60;59.10;;;;;;5096805;28;20339;-60
2022/01/01 05:47:48;;;;;;;;;;;14.60;59.10;;;;;;5096642;28;20272;-60
2022/01/01 05:50:14;;;;;;;;;;;14.60;59.10;;;;;;5097023;28;20266;-60
2022/01/01 05:52:39;;;;;;;;;;;14.70;59.00;;;;;;5096683;28;20039;-60
2022/01/01 05:55:05;;;;;;;;;;;14.60;59.20;;;;;;5096546;28;19991;-60
2022/01/01 05:57:30;;;;;;;;;;;14.60;59.10;;;;;;5096460;28;19965;-60
2022/01/01 05:59:56;;;;;;;;;;;14.60;59.00;;;;;;5096523;28;19954;-60
2022/01/01 06:02:22;;;;;;;;;;;14.60;59.00;;;;;;5096507;28;19908;-60
2022/01/01 06:04:47;;;;;;;;;;;14.60;59.00;;;;;;5096479;28;19908;-60
2022/01/01 06:07:12;;;;;;;;;;;14.60;59.10;;;;;;5096293;28;19916;-60
2022/01/01 06:09:38;;;;;;;;;;;14.60;59.00;;;;;;5078066;28;19991;-60
2022/01/01 06:12:03;;;;;;;;;;;14.60;59.10;;;;;;5096525;28;20327;-60
2022/01/01 06:14:29;;;;;;;;;;;14.70;59.10;;;;;;5096572;28;19915;-60
2022/01/01 06:16:54;;;;;;;;;;;14.60;59.00;;;;;;5096132;28;19908;-60
2022/01/01 06:19:20;;;;;;;;;;;14.60;59.00;;;;;;5096230;28;19962;-60
2022/01/01 06:21:45;;;;;;;;;;;14.60;59.10;;;;;;5096343;28;19908;-60
2022/01/01 06:24:11;;;;;;;;;;;14.60;59.10;;;;;;5096145;28;19970;-60
2022/01/01 06:26:36;;;;;;;;;;;14.60;59.10;;;;;;5095909;28;19916;-60
2022/01/01 06:29:02;;;;;;;;;;;14.70;59.20;;;;;;5096235;28;19915;-60
2022/01/01 06:31:28;;;;;;;;;;;14.60;59.10;;;;;;5095950;28;20367;-60
2022/01/01 06:33:54;;;;;;;;;;;14.60;59.10;;;;;;5095879;28;19908;-60
2022/01/01 06:36:19;;;;;;;;;;;14.60;59.00;;;;;;5078111;28;19916;-60
2022/01/01 06:38:45;;;;;;;;;;;14.60;59.10;;;;;;5096059;28;19908;-60
2022/01/01 06:41:11;;;;;;;;;;;14.60;59.10;;;;;;5095706;28;20422;-60
2022/01/01 06:43:37;;;;;;;;;;;14.60;59.10;;;;;;5095741;28;19916;-60
2022/01/01 06:46:02;;;;;;;;;;;14.60;59.20;;;;;;5095760;28;20002;-60
2022/01/01 06:48:28;;;;;;;;;;;14.60;59.10;;;;;;5077477;28;19916;-60
2022/01/01 06:50:54;;;;;;;;;;;14.60;59.10;;;;;;5095564;28;19908;-60
2022/01/01 06:53:19;;;;;;;;;;;14.60;59.10;;;;;;5095852;28;19915;-60
2022/01/01 06:55:45;;;;;;;;;;;14.60;59.20;;;;;;5095326;28;19908;-60
2022/01/01 06:58:10;;;;;;;;;;;14.60;59.00;;;;;;5095213;28;19976;-60
2022/01/01 07:00:37;;;;;;;;;;;14.60;59.10;;;;;;5095343;28;19963;-60
2022/01/01 07:03:03;;;;;;;;;;;14.60;59.20;;;;;;5095350;28;20387;-60
2022/01/01 07:05:29;;;;;;;;;;;14.70;59.10;;;;;;5095305;28;19909;-60
2022/01/01 07:07:54;;;;;;;;;;;14.60;59.20;;;;;;5095015;28;19923;-60
2022/01/01 07:10:20;;;;;;;;;;;14.60;59.10;;;;;;5095401;28;20115;-60
2022/01/01 07:12:45;;;;;;;;;;;14.60;59.20;;;;;;5095198;28;19940;-60
2022/01/01 07:15:11;;;;;;;;;;;14.60;59.10;;;;;;5095045;28;19953;-60
2022/01/01 07:17:37;;;;;;;;;;;14.60;59.10;;;;;;5095071;28;19908;-60
2022/01/01 07:20:03;;;;;;;;;;;14.60;59.10;;;;;;5095259;28;20271;-60
2022/01/01 07:22:29;;;;;;;;;;;14.60;59.20;;;;;;5095265;28;19908;-60
2022/01/01 07:24:54;;;;;;;;;;;14.60;59.20;;;;;;5094766;28;19909;-60
2022/01/01 07:27:20;;;;;;;;;;;14.60;59.20;;;;;;5094806;28;20031;-60
2022/01/01 07:29:46;;;;;;;;;;;14.60;59.20;;;;;;5095067;28;19943;-60
2022/01/01 07:32:11;;;;;;;;;;;14.60;59.30;;;;;;5076645;28;19908;-60
2022/01/01 07:34:37;;;;;;;;;;;14.60;59.20;;;;;;5094906;28;19915;-60
2022/01/01 07:37:02;;;;;;;;;;;14.60;59.30;;;;;;5094604;28;19916;-60
2022/01/01 07:39:28;;;;;;;;;;;14.60;59.10;;;;;;5094486;28;19994;-60
2022/01/01 07:41:54;;;;;;;;;;;14.60;59.20;;;;;;5094908;28;19914;-61
2022/01/01 07:44:19;;;;;;;;;;;14.60;59.20;;;;;;5094527;28;20367;-60
2022/01/01 07:46:45;;;;;;;;;;;14.60;59.20;;;;;;5094645;28;19923;-60
2022/01/01 07:49:11;;;;;;;;;;;14.60;59.10;;;;;;5094475;28;19958;-60
2022/01/01 07:51:36;;;;;;;;;;;14.60;59.30;;;;;;5094307;28;19990;-60
2022/01/01 07:54:02;;;;;;;;;;;14.60;59.20;;;;;;5093721;28;20002;-60
2022/01/01 07:56:27;;;;;;;;;;;14.60;59.20;;;;;;5094181;28;19967;-60
2022/01/01 07:58:53;;;;;;;;;;;14.60;59.10;;;;;;5075838;28;19920;-60
2022/01/01 08:01:18;;;;;;;;;;;14.60;59.30;;;;;;5094315;28;19930;-60
2022/01/01 08:03:44;;;;;;;;;;;14.60;59.10;;;;;;5075980;28;19955;-61
2022/01/01 08:06:09;;;;;;;;;;;14.60;59.30;;;;;;5094110;28;19912;-60
2022/01/01 08:08:34;;;;;;;;;;;14.60;59.30;;;;;;5093987;28;20279;-60
2022/01/01 08:11:00;;;;;;;;;;;14.60;59.10;;;;;;5094096;28;19973;-60
2022/01/01 08:13:25;;;;;;;;;;;14.60;59.20;;;;;;5093974;28;19952;-61
2022/01/01 08:15:52;;;;;;;;;;;14.70;59.30;;;;;;5093880;28;20011;-61
2022/01/01 08:18:18;;;;;;;;;;;14.60;59.20;;;;;;5093875;28;19908;-60
2022/01/01 08:20:43;;;;;;;;;;;14.60;59.20;;;;;;5094137;28;19961;-60
2022/01/01 08:23:09;;;;;;;;;;;14.60;59.20;;;;;;5093772;28;20275;-60
2022/01/01 08:25:34;;;;;;;;;;;14.60;59.30;;;;;;5093827;28;19961;-61
2022/01/01 08:28:00;;;;;;;;;;;14.70;59.30;;;;;;5093724;28;20405;-60
2022/01/01 08:30:25;;;;;;;;;;;14.70;59.30;;;;;;5094061;28;19922;-60
2022/01/01 08:32:51;;;;;;;;;;;14.70;59.20;;;;;;5075803;28;19999;-60
2022/01/01 08:35:16;;;;;;;;;;;14.60;59.30;;;;;;5093670;28;19908;-60
2022/01/01 08:37:42;;;;;;;;;;;14.70;59.20;;;;;;5093668;28;20352;-60
2022/01/01 08:40:08;;;;;;;;;;;14.60;59.30;;;;;;5093860;28;19982;-60
2022/01/01 08:42:34;;;;;;;;;;;14.70;59.30;;;;;;5093883;28;19909;-60
2022/01/01 08:44:59;;;;;;;;;;;14.70;59.30;;;;;;5093718;28;20272;-60
2022/01/01 08:47:26;;;;;;;;;;;14.70;59.20;;;;;;5093448;28;19923;-60
2022/01/01 08:49:54;;;;;;;;;;;14.70;59.20;;;;;;5093605;28;19919;-60
2022/01/01 08:52:19;;;;;;;;;;;14.60;59.30;;;;;;5093433;28;19908;-60
2022/01/01 08:54:45;;;;;;;;;;;14.70;59.20;;;;;;5093526;28;19915;-60
2022/01/01 08:57:10;;;;;;;;;;;14.70;59.30;;;;;;5093210;28;19931;-60
2022/01/01 08:59:36;;;;;;;;;;;14.70;59.40;;;;;;5093383;28;19908;-60
2022/01/01 09:02:01;;;;;;;;;;;14.70;59.20;;;;;;5093461;28;19950;-60
2022/01/01 09:04:27;;;;;;;;;;;14.70;59.20;;;;;;5093706;28;20387;-60
2022/01/01 09:06:52;;;;;;;;;;;14.70;59.20;;;;;;5097699;28;20015;-60
2022/01/01 09:09:18;;;;;;;;;;;14.70;59.20;;;;;;5097508;28;19911;-60
2022/01/01 09:11:43;;;;;;;;;;;14.70;59.20;;;;;;5097418;28;19908;-60
2022/01/01 09:14:09;;;;;;;;;;;14.70;59.20;;;;;;5097772;28;19915;-60
2022/01/01 09:16:35;;;;;;;;;;;14.80;59.20;;;;;;5097378;28;19908;-60
2022/01/01 09:19:00;;;;;;;;;;;14.80;59.20;;;;;;5097297;28;20359;-60
2022/01/01 09:21:27;;;;;;;;;;;14.80;59.10;;;;;;5097463;28;20344;-60
2022/01/01 09:23:53;;;;;;;;;;;14.80;59.20;;;;;;5097128;28;20356;-60
2022/01/01 09:26:19;;;;;;;;;;;14.80;59.20;;;;;;5097027;28;20382;-60
2022/01/01 09:28:45;;;;;;;;;;;14.80;59.30;;;;;;5078924;28;19947;-60
2022/01/01 09:31:10;;;;;;;;;;;14.80;59.30;;;;;;5097366;28;19914;-60
2022/01/01 09:33:36;;;;;;;;;;;14.80;59.20;;;;;;5097055;28;19987;-60
2022/01/01 09:36:03;;;;;;;;;;;14.80;59.20;;;;;;5096988;28;19974;-60
2022/01/01 09:38:29;;;;;;;;;;;14.80;59.20;;;;;;5097222;28;19978;-60
2022/01/01 09:40:55;;;;;;;;;;;14.80;59.20;;;;;;5097170;28;19908;-60
2022/01/01 09:43:22;;;;;;;;;;;14.80;59.20;;;;;;5096777;28;20345;-60
2022/01/01 09:45:48;;;;;;;;;;;14.80;59.20;;;;;;5096938;28;19908;-60
2022/01/01 09:48:13;;;;;;;;;;;14.80;59.20;;;;;;5096619;28;19977;-60
2022/01/01 09:50:41;;;;;;;;;;;14.80;59.20;;;;;;5096925;28;19983;-60
2022/01/01 09:53:07;;;;;;;;;;;14.80;59.20;;;;;;5096874;28;19916;-60
2022/01/01 09:55:34;;;;;;;;;;;14.80;59.20;;;;;;5096570;28;19908;-60
2022/01/01 09:57:59;;;;;;;;;;;14.80;59.20;;;;;;5095804;28;19920;-60
2022/01/01 10:00:25;;;;;;;;;;;14.80;59.20;;;;;;5095314;28;19908;-60
2022/01/01 10:02:50;;;;;;;;;;;14.80;59.20;;;;;;5095288;28;19912;-60
2022/01/01 10:05:16;;;;;;;;;;;14.80;59.10;;;;;;5094940;28;20436;-60
2022/01/01 10:07:41;;;;;;;;;;;14.80;59.20;;;;;;5094999;28;19916;-60
2022/01/01 10:10:24;;;;;;;;;;;14.80;59.20;;;;;;5095117;28;19939;-61
2022/01/01 10:12:49;;;;;;;;;;;14.80;59.20;;;;;;5095065;28;19999;-60
2022/01/01 10:15:15;;;;;;;;;;;14.80;59.20;;;;;;5094682;28;19946;-60
2022/01/01 10:17:40;;;;;;;;;;;14.80;59.20;;;;;;5094859;28;19934;-61
2022/01/01 10:20:06;;;;;;;;;;;14.80;59.20;;;;;;5095029;28;19962;-61
2022/01/01 10:22:32;;;;;;;;;;;14.80;59.20;;;;;;5094940;28;19908;-61
2022/01/01 10:27:54;;;;;;;;;;;14.90;59.20;;;;;;5095038;28;19923;-61
2022/01/01 10:30:28;;;;;;;;;;;14.90;59.10;;;;;;5094756;28;19908;-61
2022/01/01 10:33:00;;;;;;;;;;;14.80;59.10;;;;;;5094929;28;19916;-61
2022/01/01 10:35:25;;;;;;;;;;;14.90;59.10;;;;;;5094809;28;19915;-61
2022/01/01 10:37:51;;;;;;;;;;;14.90;59.20;;;;;;5094649;28;19912;-60
2022/01/01 10:40:26;;;;;;;;;;;14.80;59.10;;;;;;5094621;28;19909;-61
2022/01/01 10:42:52;;;;;;;;;;;14.90;59.10;;;;;;5094380;28;19915;-61
2022/01/01 10:45:37;;;;;;;;;;;14.90;59.10;;;;;;5094512;28;19919;-60
2022/01/01 10:48:14;;;;;;;;;;;14.90;59.10;;;;;;5094726;28;19916;-61
2022/01/01 10:50:40;;;;;;;;;;;14.90;59.10;;;;;;5094868;28;20002;-62
2022/01/01 10:53:09;;;;;;;;;;;14.90;58.90;;;;;;5094474;28;19962;-60
2022/01/01 10:55:39;;;;;;;;;;;14.90;59.10;;;;;;5094465;28;20383;-61
2022/01/01 10:58:04;;;;;;;;;;;14.90;59.10;;;;;;5033795;28;1718122;-61
2022/01/01 11:00:30;;;;;;;;;;;14.90;59.10;;;;;;5095733;28;19912;-61
2022/01/01 11:02:58;;;;;;;;;;;14.90;59.10;;;;;;5095601;28;19961;-61
2022/01/01 11:05:27;;;;;;;;;;;14.90;59.10;;;;;;5095453;28;19915;-60
2022/01/01 11:07:53;;;;;;;;;;;14.90;59.00;;;;;;5095293;28;19920;-61
2022/01/01 11:10:19;;;;;;;;;;;14.90;59.00;;;;;;5095438;28;19915;-61
2022/01/01 11:12:46;;;;;;;;;;;14.90;59.10;;;;;;5095296;28;20026;-61
2022/01/01 11:15:11;;;;;;;;;;;14.90;59.10;;;;;;5095160;28;19919;-60
2022/01/01 11:17:41;;;;;;;;;;;14.90;59.10;;;;;;5095344;28;19909;-61
2022/01/01 11:20:07;;;;;;;;;;;14.90;59.00;;;;;;5095137;28;19994;-61
2022/01/01 11:22:32;;;;;;;;;;;15.00;59.00;;;;;;5094955;28;19955;-60
2022/01/01 11:24:58;;;;;;;;;;;15.00;59.00;;;;;;5094908;28;19999;-61
2022/01/01 11:27:25;;;;;;;;;;;15.00;59.00;;;;;;5094021;28;19916;-60
2022/01/01 11:29:53;;;;;;;;;;;15.00;59.00;;;;;;5094737;28;19944;-61
2022/01/01 11:32:29;;;;;;;;;;;15.00;59.00;;;;;;5095094;28;19915;-61
2022/01/01 11:34:55;;;;;;;;;;;15.00;59.00;;;;;;5094529;28;19947;-61
2022/01/01 11:37:23;;;;;;;;;;;15.00;59.00;;;;;;5094771;28;20123;-61
2022/01/01 11:39:53;;;;;;;;;;;15.00;58.90;;;;;;5094789;28;19995;-61
2022/01/01 11:42:19;;;;;;;;;;;15.00;58.80;;;;;;5094616;28;19995;-61
2022/01/01 11:44:54;;;;;;;;;;;15.00;58.90;;;;;;5094665;28;20347;-61
2022/01/01 11:47:24;;;;;;;;;;;15.00;58.80;;;;;;5094308;28;20318;-61
2022/01/01 11:49:50;;;;;;;;;;;15.00;58.90;;;;;;5094698;28;19912;-60
2022/01/01 11:52:34;;;;;;;;;;;15.00;58.80;;;;;;5094631;28;19908;-61
2022/01/01 11:55:00;;;;;;;;;;;15.00;58.80;;;;;;5094226;28;19908;-61
2022/01/01 11:57:27;;;;;;;;;;;15.00;58.90;;;;;;5093994;28;19923;-61
2022/01/01 11:59:58;;;;;;;;;;;15.00;58.80;;;;;;5094122;28;19955;-61
2022/01/01 12:02:23;;;;;;;;;;;15.00;58.80;;;;;;5094129;28;19995;-61
2022/01/01 12:04:50;;;;;;;;;;;15.00;58.90;;;;;;5094209;28;19999;-61
2022/01/01 12:07:16;;;;;;;;;;;15.10;58.80;;;;;;5094102;28;20286;-61
2022/01/01 12:09:49;;;;;;;;;;;15.10;58.80;;;;;;5093927;28;20003;-61
2022/01/01 12:12:16;;;;;;;;;;;15.00;58.80;;;;;;5093849;28;20007;-61
2022/01/01 12:14:42;;;;;;;;;;;15.00;58.80;;;;;;5093590;28;19916;-61
2022/01/01 12:17:07;;;;;;;;;;;15.10;58.80;;;;;;5075594;28;19908;-61
2022/01/01 12:19:36;;;;;;;;;;;15.00;58.80;;;;;;5093764;28;19909;-61
2022/01/01 12:22:07;;;;;;;;;;;15.10;58.80;;;;;;5093864;28;20401;-61
2022/01/01 12:24:43;;;;;;;;;;;15.00;58.80;;;;;;5093968;28;20292;-61
2022/01/01 12:27:12;;;;;;;;;;;15.10;58.80;;;;;;5093856;28;20276;-61
2022/01/01 12:29:38;;;;;;;;;;;15.10;58.80;;;;;;5094113;28;19916;-61
2022/01/01 12:32:07;;;;;;;;;;;15.10;58.70;;;;;;5075641;28;19912;-61
2022/01/01 12:34:34;;;;;;;;;;;15.10;58.80;;;;;;5076500;28;19915;-60
2022/01/01 12:37:03;;;;;;;;;;;15.10;58.70;;;;;;5093721;28;19908;-61
2022/01/01 12:39:28;;;;;;;;;;;15.10;58.80;;;;;;5093650;28;19908;-61
2022/01/01 12:41:56;;;;;;;;;;;15.10;58.80;;;;;;5093648;28;19931;-61
2022/01/01 12:44:23;;;;;;;;;;;15.10;58.70;;;;;;5075416;28;19919;-61
2022/01/01 12:46:51;;;;;;;;;;;15.10;58.70;;;;;;5093362;28;20368;-60
2022/01/01 12:49:16;;;;;;;;;;;15.10;58.70;;;;;;5093469;28;19919;-61
2022/01/01 12:51:42;;;;;;;;;;;15.10;58.70;;;;;;5093480;28;19908;-61
2022/01/01 12:54:15;;;;;;;;;;;15.10;58.70;;;;;;5093190;28;20395;-61
2022/01/01 12:56:43;;;;;;;;;;;15.10;58.70;;;;;;5093267;28;19915;-60
2022/01/01 12:59:10;;;;;;;;;;;15.10;58.60;;;;;;5093318;28;20042;-61
2022/01/01 13:01:35;;;;;;;;;;;15.10;58.70;;;;;;5093431;28;19912;-61
2022/01/01 13:04:05;;;;;;;;;;;15.10;58.70;;;;;;5093631;28;19919;-61
2022/01/01 13:06:59;;;;;;;;;;;15.10;58.70;;;;;;5092855;28;19934;-61
2022/01/01 13:09:27;;;;;;;;;;;15.10;58.70;;;;;;5091414;28;19915;-60
2022/01/01 13:11:57;;;;;;;;;;;15.10;58.70;;;;;;5093546;28;19915;-61
2022/01/01 13:14:23;;;;;;;;;;;15.10;58.70;;;;;;5093471;28;19908;-61
2022/01/01 13:16:48;;;;;;;;;;;15.10;58.70;;;;;;5093183;28;19915;-61
2022/01/01 13:19:14;;;;;;;;;;;15.10;58.70;;;;;;5093592;28;19912;-60
2022/01/01 13:21:39;;;;;;;;;;;15.10;58.80;;;;;;5093334;28;19908;-61
2022/01/01 13:24:07;;;;;;;;;;;15.10;58.70;;;;;;5093042;28;19930;-60
2022/01/01 13:26:33;;;;;;;;;;;15.10;58.80;;;;;;5093364;28;19936;-61
2022/01/01 13:29:00;;;;;;;;;;;15.10;58.70;;;;;;5093049;28;19956;-61
2022/01/01 13:31:26;;;;;;;;;;;15.10;58.70;;;;;;5092985;28;19908;-61
2022/01/01 13:33:53;;;;;;;;;;;15.10;58.70;;;;;;5093132;28;19914;-61
2022/01/01 13:36:36;;;;;;;;;;;15.10;58.80;;;;;;5092963;28;19908;-61
2022/01/01 13:39:03;;;;;;;;;;;15.10;58.80;;;;;;5093028;28;20417;-60
2022/01/01 13:41:33;;;;;;;;;;;15.10;58.80;;;;;;5093168;28;20008;-61
2022/01/01 13:43:58;;;;;;;;;;;15.10;58.80;;;;;;5093128;28;19987;-61
2022/01/01 13:46:30;;;;;;;;;;;15.10;58.80;;;;;;5092716;28;19952;-60
2022/01/01 13:48:57;;;;;;;;;;;15.10;58.80;;;;;;5092807;28;19912;-61
2022/01/01 13:51:24;;;;;;;;;;;15.10;58.80;;;;;;5094666;28;19908;-61
2022/01/01 13:53:51;;;;;;;;;;;15.10;58.80;;;;;;5061832;28;19915;-61
2022/01/01 13:56:19;;;;;;;;;;;15.10;58.80;;;;;;5096943;28;19909;-61
2022/01/01 13:58:54;;;;;;;;;;;15.10;58.80;;;;;;5096428;28;20011;-60
2022/01/01 14:01:19;;;;;;;;;;;15.10;58.80;;;;;;5096742;28;20375;-60
2022/01/01 14:03:45;;;;;;;;;;;15.10;58.80;;;;;;5078230;28;20026;-61
2022/01/01 14:06:11;;;;;;;;;;;15.10;58.80;;;;;;5096529;28;19919;-61
2022/01/01 14:08:37;;;;;;;;;;;15.10;58.80;;;;;;5096444;28;19916;-60
2022/01/01 14:11:03;;;;;;;;;;;15.10;58.80;;;;;;5096307;28;19915;-61
2022/01/01 14:13:29;;;;;;;;;;;15.10;58.80;;;;;;5096308;28;19908;-61
2022/01/01 14:15:56;;;;;;;;;;;15.10;58.90;;;;;;5096505;28;20028;-61
2022/01/01 14:18:28;;;;;;;;;;;15.10;58.90;;;;;;5096161;28;19967;-61